Time;durP1;ratioP1;P1;durP2;ratioP2;P2;SDS_P1;SDS_P2;PMS_P1;PMS_P2;Temp;Humidity;BMP_temperature;BMP_pressure;BME280_temperature;BME280_humidity;BME280_pressure;Samples;Min_cycle;Max_cycle;Signal;HPM_P1;HPM_P2
2022/06/23 00:01:46;;;;;;;6.67;2.50;;;;;;;18.82;100.00;96061.31;5032936;28;102477;-64
2022/06/23 00:04:17;;;;;;;4.80;2.27;;;;;;;18.67;100.00;96058.19;5032065;28;102711;-64
2022/06/23 00:07:15;;;;;;;5.10;2.30;;;;;;;18.66;100.00;96053.91;5031670;28;101923;-64
2022/06/23 00:09:48;;;;;;;6.47;2.10;;;;;;;18.57;100.00;96061.16;5031769;28;103579;-64
2022/06/23 00:12:31;;;;;;;4.90;2.60;;;;;;;18.53;100.00;96060.97;5032586;28;102676;-64
2022/06/23 00:15:22;;;;;;;6.83;2.70;;;;;;;18.53;100.00;96065.56;5034261;27;101922;-64
2022/06/23 00:17:58;;;;;;;5.70;2.90;;;;;;;18.49;100.00;96075.38;5028441;27;102558;-64
2022/06/23 00:20:31;;;;;;;5.77;3.13;;;;;;;18.43;100.00;96081.97;5032628;28;101889;-64
2022/06/23 00:23:05;;;;;;;5.73;2.53;;;;;;;18.38;100.00;96088.28;5032667;27;102540;-64
2022/06/23 00:25:41;;;;;;;3.97;2.60;;;;;;;18.35;100.00;96090.78;5030721;28;104118;-64
2022/06/23 00:28:17;;;;;;;4.97;2.73;;;;;;;18.42;100.00;96086.56;5032685;28;101700;-64
2022/06/23 00:30:45;;;;;;;7.73;2.67;;;;;;;18.47;100.00;96091.81;5032623;28;102152;-64
2022/06/23 00:33:19;;;;;;;3.10;2.67;;;;;;;18.46;100.00;96092.94;5031606;28;102024;-64
2022/06/23 00:36:00;;;;;;;6.13;3.00;;;;;;;18.45;100.00;96085.16;5031105;28;102167;-64
2022/06/23 00:38:31;;;;;;;4.37;3.00;;;;;;;18.35;100.00;96086.22;5034220;27;102539;-64
2022/06/23 00:41:00;;;;;;;7.47;2.63;;;;;;;18.44;100.00;96088.94;5032416;28;101691;-64
2022/06/23 00:43:29;;;;;;;7.17;3.23;;;;;;;18.37;100.00;96088.59;5032221;28;102486;-64
2022/06/23 00:46:19;;;;;;;4.13;2.80;;;;;;;18.36;100.00;96087.00;5031354;27;102857;-64
2022/06/23 00:49:23;;;;;;;4.43;2.83;;;;;;;18.39;100.00;96086.38;5032656;28;102046;-64
2022/06/23 00:51:57;;;;;;;5.73;3.00;;;;;;;18.35;100.00;96088.91;5031820;28;102580;-64
2022/06/23 00:54:32;;;;;;;5.60;2.60;;;;;;;18.28;100.00;96085.81;5031530;28;103545;-64
2022/06/23 00:57:06;;;;;;;4.63;2.80;;;;;;;18.30;100.00;96098.94;5032590;28;101799;-64
2022/06/23 00:59:39;;;;;;;3.83;2.67;;;;;;;18.23;100.00;96093.19;5031693;28;101930;-64
2022/06/23 01:02:10;;;;;;;6.30;2.80;;;;;;;18.29;100.00;96094.66;5034373;27;101936;-64
2022/06/23 01:05:01;;;;;;;4.80;2.57;;;;;;;18.33;100.00;96098.38;5032363;28;102408;-64
2022/06/23 01:07:41;;;;;;;5.03;2.97;;;;;;;18.24;100.00;96111.75;5031401;28;102864;-64
2022/06/23 01:10:20;;;;;;;3.90;2.60;;;;;;;18.28;100.00;96107.34;5032211;28;101771;-64
2022/06/23 01:12:54;;;;;;;5.53;2.80;;;;;;;18.27;100.00;96121.91;5030736;28;103718;-64
2022/06/23 01:15:39;;;;;;;4.80;2.83;;;;;;;18.28;100.00;96123.50;5031552;28;103109;-64
2022/06/23 01:18:31;;;;;;;4.63;3.10;;;;;;;18.28;100.00;96130.78;5032040;28;101988;-64
2022/06/23 01:21:03;;;;;;;6.97;2.87;;;;;;;18.31;100.00;96132.88;5031904;28;102732;-64
2022/06/23 01:24:02;;;;;;;6.47;2.83;;;;;;;18.23;100.00;96130.88;5034602;27;101780;-64
2022/06/23 01:27:12;;;;;;;7.70;3.10;;;;;;;18.27;100.00;96129.19;5032101;28;102836;-64
2022/06/23 01:29:44;;;;;;;5.83;2.83;;;;;;;18.31;100.00;96133.66;5029936;28;105439;-64
2022/06/23 01:32:19;;;;;;;6.13;2.57;;;;;;;18.32;100.00;96143.34;5031662;28;101755;-64
2022/06/23 01:34:53;;;;;;;4.80;2.40;;;;;;;18.35;100.00;96145.44;5030412;28;105556;-64
2022/06/23 01:37:26;;;;;;;5.03;2.50;;;;;;;18.26;100.00;96144.53;5029547;28;103760;-64
2022/06/23 01:40:03;;;;;;;4.83;2.23;;;;;;;18.32;100.00;96147.94;5031372;28;101706;-64
2022/06/23 01:42:41;;;;;;;5.10;2.30;;;;;;;18.27;100.00;96146.16;5030190;28;105285;-64
2022/06/23 01:45:19;;;;;;;3.83;2.30;;;;;;;18.33;100.00;96146.84;5030802;28;101936;-64
2022/06/23 01:47:51;;;;;;;8.47;2.47;;;;;;;18.39;100.00;96146.44;5035139;28;101739;-64
2022/06/23 01:50:30;;;;;;;3.87;2.50;;;;;;;18.38;100.00;96149.41;5030343;27;102820;-64
2022/06/23 01:53:25;;;;;;;3.93;2.37;;;;;;;18.51;100.00;96149.34;5029790;28;102222;-64
2022/06/23 01:56:19;;;;;;;3.90;2.17;;;;;;;18.32;100.00;96147.94;5031409;28;102413;-64
2022/06/23 01:58:55;;;;;;;4.97;2.37;;;;;;;18.42;100.00;96153.88;5014685;27;102789;-64
2022/06/23 02:01:33;;;;;;;5.10;2.70;;;;;;;18.38;100.00;96149.41;5029628;28;101931;-64
2022/06/23 02:04:08;;;;;;;5.60;2.47;;;;;;;18.31;100.00;96154.41;5031319;27;102777;-64
2022/06/23 02:06:54;;;;;;;6.63;2.43;;;;;;;18.36;100.00;96148.94;5029133;28;105679;-64
2022/06/23 02:09:31;;;;;;;5.50;2.30;;;;;;;18.34;100.00;96143.84;5031422;28;101805;-64
2022/06/23 02:11:58;;;;;;;3.87;2.03;;;;;;;18.33;100.00;96154.91;5033384;28;102903;-64
2022/06/23 02:14:51;;;;;;;5.77;2.63;;;;;;;18.28;100.00;96163.88;5031029;27;101804;-64
2022/06/23 02:17:30;;;;;;;5.83;2.90;;;;;;;18.34;100.00;96160.00;5011137;28;102856;-64
2022/06/23 02:20:14;;;;;;;4.37;2.63;;;;;;;18.30;100.00;96158.97;5012059;28;105883;-64
2022/06/23 02:22:47;;;;;;;6.97;2.50;;;;;;;18.26;100.00;96159.91;5029459;28;101896;-64
2022/06/23 02:25:46;;;;;;;7.10;2.97;;;;;;;18.28;100.00;96155.00;5030990;27;102356;-64
2022/06/23 02:28:17;;;;;;;6.53;2.90;;;;;;;18.28;100.00;96161.19;5029228;28;105456;-64
2022/06/23 02:30:49;;;;;;;4.13;2.70;;;;;;;18.32;100.00;96150.63;5029417;28;101954;-64
2022/06/23 02:33:23;;;;;;;3.03;2.40;;;;;;;18.21;100.00;96165.41;5030899;28;102604;-64
2022/06/23 02:35:57;;;;;;;4.70;2.67;;;;;;;18.26;100.00;96149.13;5032115;28;103934;-64
2022/06/23 02:38:26;;;;;;;6.30;2.63;;;;;;;18.31;100.00;96151.72;5030993;28;102578;-64
2022/06/23 02:40:58;;;;;;;5.37;2.80;;;;;;;18.19;100.00;96154.13;5029648;28;102563;-64
2022/06/23 02:43:31;;;;;;;6.83;2.57;;;;;;;18.08;100.00;96158.13;5029112;28;103173;-64
2022/06/23 02:46:37;;;;;;;5.03;2.77;;;;;;;18.19;100.00;96157.63;5028962;28;105796;-64
2022/06/23 02:49:45;;;;;;;7.97;2.77;;;;;;;18.20;100.00;96147.66;5029984;28;102651;-64
2022/06/23 02:52:41;;;;;;;4.93;2.60;;;;;;;18.26;100.00;96165.28;5010510;28;101696;-64
2022/06/23 02:55:24;;;;;;;7.20;2.90;;;;;;;18.28;100.00;96171.97;5023471;28;105726;-64
2022/06/23 02:57:59;;;;;;;3.60;2.70;;;;;;;18.42;100.00;96169.25;5008439;28;105998;-64
2022/06/23 03:00:32;;;;;;;5.27;2.70;;;;;;;18.57;100.00;96179.66;5028553;28;101989;-64
2022/06/23 03:03:08;;;;;;;7.10;2.73;;;;;;;18.60;100.00;96184.44;5011914;28;102568;-64
2022/06/23 03:05:48;;;;;;;4.53;2.47;;;;;;;18.44;100.00;96175.94;5033834;28;101995;-64
2022/06/23 03:08:27;;;;;;;7.13;2.80;;;;;;;18.61;100.00;96181.44;5034030;28;102402;-64
2022/06/23 03:10:59;;;;;;;6.33;2.50;;;;;;;18.64;100.00;96188.13;5011939;28;104686;-64
2022/06/23 03:13:35;;;;;;;4.73;2.90;;;;;;;18.57;100.00;96179.66;5017877;28;101878;-64
2022/06/23 03:16:14;;;;;;;5.33;2.87;;;;;;;18.51;100.00;96181.69;5033729;28;102534;-64
2022/06/23 03:22:14;;;;;;;5.93;2.50;;;;;;;18.42;100.00;96193.47;5037213;27;101675;-64
2022/06/23 03:24:50;;;;;;;4.53;2.60;;;;;;;18.34;100.00;96197.69;5032958;28;102590;-64
2022/06/23 03:27:25;;;;;;;6.07;2.50;;;;;;;18.48;100.00;96189.56;5032447;28;101908;-64
2022/06/23 03:29:56;;;;;;;3.90;2.57;;;;;;;18.38;100.00;96185.22;5033504;28;102499;-64
2022/06/23 03:32:30;;;;;;;7.87;2.70;;;;;;;18.18;100.00;96192.91;5031720;28;105862;-64
2022/06/23 03:35:21;;;;;;;8.90;2.90;;;;;;;18.23;100.00;96190.91;5032012;28;101869;-64
2022/06/23 03:37:57;;;;;;;8.10;2.87;;;;;;;18.39;100.00;96194.06;5033620;28;102410;-64
2022/06/23 03:43:19;;;;;;;7.27;2.80;;;;;;;18.32;100.00;96207.16;5031735;28;101850;-64
2022/06/23 03:46:05;;;;;;;6.23;2.60;;;;;;;18.37;100.00;96207.06;5036103;27;102238;-64
2022/06/23 03:48:44;;;;;;;8.87;2.73;;;;;;;18.23;100.00;96214.31;5031999;28;102001;-64
2022/06/23 03:51:16;;;;;;;6.10;2.27;;;;;;;18.11;100.00;96214.88;5032181;28;105306;-64
2022/06/23 03:53:55;;;;;;;3.27;2.13;;;;;;;18.33;100.00;96206.88;5031024;28;103888;-65
2022/06/23 03:57:12;;;;;;;5.50;2.37;;;;;;;18.53;100.00;96208.31;5032028;28;101712;-65
2022/06/23 04:00:01;;;;;;;3.33;2.33;;;;;;;18.69;100.00;96206.84;5031668;28;105302;-65
2022/06/23 04:02:35;;;;;;;5.67;2.43;;;;;;;18.62;100.00;96209.16;5030709;28;105216;-64
2022/06/23 04:05:40;;;;;;;3.40;2.50;;;;;;;18.75;100.00;96213.72;5033030;28;101793;-65
2022/06/23 04:08:07;;;;;;;5.07;2.50;;;;;;;18.86;100.00;96213.16;5012988;28;102475;-65
2022/06/23 04:10:41;;;;;;;3.53;2.40;;;;;;;19.02;100.00;96213.59;5015816;28;102593;-65
2022/06/23 04:13:16;;;;;;;4.97;2.23;;;;;;;18.96;100.00;96225.59;5020565;28;102391;-65
2022/06/23 04:16:08;;;;;;;5.53;2.40;;;;;;;18.87;100.00;96213.94;5031853;28;102796;-65
2022/06/23 04:18:54;;;;;;;3.73;2.37;;;;;;;18.81;100.00;96215.19;5031648;28;101848;-65
2022/06/23 04:21:26;;;;;;;3.87;2.40;;;;;;;18.88;100.00;96220.94;5032387;28;102566;-65
2022/06/23 04:23:56;;;;;;;5.53;2.80;;;;;;;18.83;100.00;96221.06;5032032;28;102717;-65
2022/06/23 04:26:32;;;;;;;8.37;2.53;;;;;;;18.88;100.00;96234.41;5032446;28;101727;-65
2022/06/23 04:29:09;;;;;;;4.73;2.47;;;;;;;18.59;100.00;96225.94;5030993;28;104260;-65
2022/06/23 04:31:41;;;;;;;4.90;2.40;;;;;;;18.73;100.00;96226.69;5030512;28;105871;-65
2022/06/23 04:34:19;;;;;;;4.37;2.10;;;;;;;18.65;100.00;96219.34;5035645;28;101706;-65
2022/06/23 04:36:47;;;;;;;3.03;2.30;;;;;;;18.79;100.00;96231.66;5031492;28;104572;-65
2022/06/23 04:39:22;;;;;;;6.10;2.50;;;;;;;18.78;100.00;96224.66;5032231;28;101926;-65
2022/06/23 04:41:58;;;;;;;4.27;2.30;;;;;;;18.84;100.00;96226.13;5030692;28;105126;-65
2022/06/23 04:44:30;;;;;;;5.00;2.30;;;;;;;18.71;100.00;96218.91;5030307;28;105874;-65
2022/06/23 04:47:00;;;;;;;7.33;2.50;;;;;;;18.93;100.00;96234.28;5032349;28;102300;-65
2022/06/23 04:49:36;;;;;;;4.13;2.30;;;;;;;18.71;100.00;96231.59;5032193;28;102575;-65
2022/06/23 04:52:13;;;;;;;4.13;2.20;;;;;;;18.70;100.00;96228.06;5030039;28;104310;-65
2022/06/23 04:54:47;;;;;;;6.97;2.57;;;;;;;18.91;100.00;96225.72;5032147;27;101679;-65
2022/06/23 04:57:20;;;;;;;5.43;2.43;;;;;;;18.94;100.00;96222.41;5033496;28;105620;-65
2022/06/23 04:59:51;;;;;;;4.20;1.97;;;;;;;19.21;100.00;96220.41;5030004;28;102067;-64
2022/06/23 05:02:30;;;;;;;7.37;2.37;;;;;;;19.30;100.00;96210.44;5031331;27;104113;-64
2022/06/23 05:05:05;;;;;;;9.83;2.60;;;;;;;19.42;100.00;96218.78;5029685;28;104385;-64
2022/06/23 05:07:37;;;;;;;5.17;2.63;;;;;;;18.89;100.00;96219.81;5031964;28;102048;-64
2022/06/23 05:10:07;;;;;;;4.77;2.27;;;;;;;19.47;100.00;96215.94;5031984;28;102576;-64
2022/06/23 05:12:40;;;;;;;5.80;2.20;;;;;;;19.58;100.00;96211.88;5031096;28;103344;-64
2022/06/23 05:15:17;;;;;;;4.07;2.20;;;;;;;20.08;100.00;96212.38;5030125;28;102109;-64
2022/06/23 05:17:51;;;;;;;5.67;2.07;;;;;;;20.44;100.00;96211.00;5031331;28;104326;-64
2022/06/23 05:20:31;;;;;;;5.63;2.03;;;;;;;20.73;100.00;96200.38;5034416;27;102511;-64
2022/06/23 05:22:58;;;;;;;4.50;2.37;;;;;;;20.61;100.00;96208.28;5031799;28;102877;-64
2022/06/23 05:25:35;;;;;;;6.67;2.40;;;;;;;20.30;100.00;96209.53;5028895;27;105702;-64
2022/06/23 05:28:09;;;;;;;7.30;2.40;;;;;;;20.09;100.00;96205.84;5031436;27;101702;-64
2022/06/23 05:30:40;;;;;;;5.47;2.00;;;;;;;20.38;100.00;96220.34;5031327;27;102318;-64
2022/06/23 05:33:19;;;;;;;4.83;2.10;;;;;;;20.36;100.00;96208.28;5028938;28;105418;-64
2022/06/23 05:35:52;;;;;;;4.10;1.90;;;;;;;20.69;100.00;96210.22;5031146;28;102093;-64
2022/06/23 05:38:27;;;;;;;3.90;2.20;;;;;;;20.88;100.00;96204.50;5030894;27;102365;-64
2022/06/23 05:40:56;;;;;;;3.73;2.13;;;;;;;20.95;100.00;96207.53;5032416;28;105530;-64
2022/06/23 05:43:27;;;;;;;4.37;2.10;;;;;;;21.33;100.00;96214.63;5030078;28;102510;-64
2022/06/23 05:45:57;;;;;;;6.90;2.20;;;;;;;21.50;100.00;96213.78;5030532;28;101855;-64
2022/06/23 05:48:29;;;;;;;5.83;2.10;;;;;;;21.67;100.00;96205.59;5030842;28;101975;-64
2022/06/23 05:51:01;;;;;;;3.20;1.90;;;;;;;21.22;100.00;96201.75;5031044;27;102282;-64
2022/06/23 05:53:31;;;;;;;5.03;2.10;;;;;;;21.17;100.00;96193.81;5029763;27;103106;-64
2022/06/23 05:56:02;;;;;;;10.33;2.40;;;;;;;21.13;100.00;96198.25;5029299;28;102002;-64
2022/06/23 05:58:36;;;;;;;5.17;2.17;;;;;;;21.32;100.00;96206.81;5029449;28;102798;-64
2022/06/23 06:01:12;;;;;;;4.03;1.80;;;;;;;21.57;100.00;96212.16;5030068;28;102581;-64
2022/06/23 06:03:43;;;;;;;4.70;2.00;;;;;;;21.63;100.00;96208.16;5033815;28;101737;-64
2022/06/23 06:06:12;;;;;;;3.20;1.80;;;;;;;21.64;100.00;96198.13;5029834;28;102642;-64
2022/06/23 06:11:25;;;;;;;3.17;1.83;;;;;;;22.25;100.00;96197.53;5029820;28;102501;-64
2022/06/23 06:13:54;;;;;;;6.60;2.30;;;;;;;22.13;100.00;96189.31;5027960;28;105569;-64
2022/06/23 06:16:21;;;;;;;4.90;1.90;;;;;;;22.16;100.00;96194.88;5028859;28;102368;-64
2022/06/23 06:18:49;;;;;;;6.90;1.90;;;;;;;22.66;100.00;96198.34;5030532;28;102370;-64
2022/06/23 06:21:19;;;;;;;4.37;2.10;;;;;;;22.70;100.00;96193.06;5027975;28;105564;-64
2022/06/23 06:23:53;;;;;;;3.60;2.00;;;;;;;23.12;100.00;96191.91;5028671;28;101869;-64
2022/06/23 06:26:24;;;;;;;3.80;2.37;;;;;;;23.20;100.00;96183.69;5032962;28;102602;-64
2022/06/23 06:28:58;;;;;;;5.87;2.20;;;;;;;23.27;100.00;96196.72;5030000;27;101825;-64
2022/06/23 06:31:29;;;;;;;4.90;2.10;;;;;;;23.35;100.00;96193.91;5028561;28;105258;-64
2022/06/23 06:34:04;;;;;;;4.30;1.40;;;;;;;23.55;100.00;96194.97;5027925;28;105479;-64
2022/06/23 06:36:36;;;;;;;5.67;2.13;;;;;;;23.66;100.00;96196.13;5027973;28;101988;-64
2022/06/23 06:39:10;;;;;;;4.67;1.90;;;;;;;23.66;100.00;96193.41;5030532;27;102334;-64
2022/06/23 06:41:38;;;;;;;6.93;2.50;;;;;;;23.20;100.00;96201.88;5029698;28;103334;-64
2022/06/23 06:44:08;;;;;;;6.67;2.23;;;;;;;23.12;100.00;96195.41;5030116;27;102351;-64
2022/06/23 06:46:38;;;;;;;4.20;1.87;;;;;;;23.51;100.00;96196.78;5030475;28;102410;-64
2022/06/23 06:49:07;;;;;;;4.97;2.53;;;;;;;23.17;100.00;96197.13;5033088;27;102481;-64
2022/06/23 06:51:34;;;;;;;3.63;1.70;;;;;;;23.75;100.00;96194.88;5030385;27;101681;-64
2022/06/23 06:54:04;;;;;;;6.40;2.43;;;;;;;23.72;100.00;96192.06;5029566;28;102662;-64
2022/06/23 06:56:40;;;;;;;4.00;2.07;;;;;;;24.08;100.00;96202.97;5030146;28;102122;-64
2022/06/23 06:59:21;;;;;;;4.80;2.30;;;;;;;23.76;100.00;96195.69;5028406;28;105034;-64
2022/06/23 07:01:54;;;;;;;5.57;2.10;;;;;;;23.03;100.00;96199.31;5029460;28;102033;-64
2022/06/23 07:04:25;;;;;;;6.63;2.27;;;;;;;23.68;100.00;96207.44;5030138;28;101860;-64
2022/06/23 07:06:56;;;;;;;4.67;2.00;;;;;;;23.96;100.00;96205.66;5028726;28;102840;-64
2022/06/23 07:09:32;;;;;;;4.93;2.30;;;;;;;23.30;100.00;96206.91;5029638;27;102761;-64
2022/06/23 07:12:04;;;;;;;5.97;2.50;;;;;;;23.52;100.00;96201.06;5032000;28;101894;-64
2022/06/23 07:14:40;;;;;;;6.30;2.20;;;;;;;23.69;100.00;96203.56;5028034;28;105677;-64
2022/06/23 07:17:16;;;;;;;3.63;2.03;;;;;;;24.26;100.00;96212.47;5030070;27;101785;-64
2022/06/23 07:19:50;;;;;;;5.80;2.23;;;;;;;24.04;100.00;96204.78;5028826;28;102999;-64
2022/06/23 07:22:24;;;;;;;4.20;2.07;;;;;;;23.93;100.00;96209.09;5027894;28;103128;-64
2022/06/23 07:24:55;;;;;;;5.10;2.17;;;;;;;24.32;100.00;96205.66;5029881;28;101775;-64
2022/06/23 07:27:27;;;;;;;5.07;2.23;;;;;;;24.04;100.00;96204.78;5028682;28;104045;-64
2022/06/23 07:30:00;;;;;;;5.30;2.30;;;;;;;24.56;100.00;96202.88;5028118;28;104490;-64
2022/06/23 07:32:37;;;;;;;6.27;2.07;;;;;;;24.63;100.00;96208.59;5028333;28;101880;-64
2022/06/23 07:35:16;;;;;;;6.17;2.20;;;;;;;24.79;100.00;96204.78;5032741;28;102567;-64
2022/06/23 07:37:47;;;;;;;7.70;2.37;;;;;;;24.88;100.00;96201.94;5029670;28;101876;-64
2022/06/23 07:40:18;;;;;;;4.90;2.07;;;;;;;24.99;100.00;96209.25;5029468;28;104969;-64
2022/06/23 07:42:52;;;;;;;6.57;2.30;;;;;;;24.52;100.00;96197.34;5027517;28;104600;-64
2022/06/23 07:45:28;;;;;;;5.43;2.57;;;;;;;24.11;100.00;96203.09;5028289;28;101841;-64
2022/06/23 07:47:55;;;;;;;6.57;2.50;;;;;;;23.77;100.00;96200.75;5030721;28;102365;-64
2022/06/23 07:50:22;;;;;;;6.90;2.30;;;;;;;23.71;100.00;96198.63;5030859;28;105231;-64
2022/06/23 07:52:50;;;;;;;6.37;2.60;;;;;;;24.36;100.00;96206.56;5031328;28;102181;-64
2022/06/23 07:55:22;;;;;;;5.80;2.80;;;;;;;24.10;100.00;96201.50;5035668;28;103999;-64
2022/06/23 07:57:51;;;;;;;6.57;2.43;;;;;;;24.51;100.00;96194.97;5031595;28;101807;-64
2022/06/23 08:00:18;;;;;;;6.43;2.50;;;;;;;24.38;100.00;96198.84;5032599;28;102360;-64
2022/06/23 08:02:53;;;;;;;6.33;2.40;;;;;;;24.55;100.00;96193.16;5030203;28;105318;-64
2022/06/23 08:05:25;;;;;;;4.87;2.50;;;;;;;24.94;100.00;96192.38;5031129;28;101911;-64
2022/06/23 08:07:53;;;;;;;7.87;2.30;;;;;;;25.47;100.00;96194.66;5031378;28;105416;-64
2022/06/23 08:10:25;;;;;;;5.57;2.40;;;;;;;25.83;100.00;96194.44;5032176;28;102744;-64
2022/06/23 08:12:56;;;;;;;6.87;2.27;;;;;;;25.83;100.00;96188.97;5031212;28;101875;-64
2022/06/23 08:18:26;;;;;;;4.97;2.20;;;;;;;26.05;100.00;96183.69;5033959;28;103743;-64
2022/06/23 08:21:00;;;;;;;5.27;2.37;;;;;;;25.81;100.00;96186.59;5032609;27;102401;-64
2022/06/23 08:23:32;;;;;;;7.87;2.50;;;;;;;25.12;100.00;96172.69;5031979;28;102636;-64
2022/06/23 08:26:01;;;;;;;5.00;2.10;;;;;;;25.04;100.00;96178.28;5032587;28;101857;-64
2022/06/23 08:28:29;;;;;;;5.23;2.30;;;;;;;25.09;100.00;96178.84;5032616;28;102833;-64
2022/06/23 08:30:56;;;;;;;2.87;2.00;;;;;;;25.42;100.00;96175.84;5031730;28;103160;-64
2022/06/23 08:33:26;;;;;;;4.23;2.10;;;;;;;25.97;100.00;96172.97;5032222;28;101870;-64
2022/06/23 08:35:57;;;;;;;4.60;1.90;;;;;;;26.45;100.00;96165.16;5030695;28;105675;-64
2022/06/23 08:38:30;;;;;;;4.93;2.00;;;;;;;26.90;100.00;96162.63;5030538;28;104666;-64
2022/06/23 08:41:10;;;;;;;5.60;2.30;;;;;;;26.77;100.00;96163.94;5034219;28;102151;-64
2022/06/23 08:43:43;;;;;;;5.40;1.87;;;;;;;26.99;100.00;96155.03;5030015;28;105360;-64
2022/06/23 08:46:19;;;;;;;7.00;2.67;;;;;;;26.27;100.00;96155.78;5031014;28;101790;-64
2022/06/23 08:49:00;;;;;;;5.93;2.10;;;;;;;26.39;100.00;96158.41;5030817;28;105580;-64
2022/06/23 08:51:40;;;;;;;5.03;2.50;;;;;;;25.87;100.00;96151.69;5029818;28;105395;-64
2022/06/23 08:54:18;;;;;;;5.63;2.40;;;;;;;25.94;100.00;96149.19;5030779;28;101897;-64
2022/06/23 08:56:55;;;;;;;5.07;2.00;;;;;;;26.86;100.00;96150.09;5030824;28;105336;-64
2022/06/23 08:59:28;;;;;;;4.40;2.37;;;;;;;27.40;100.00;96157.00;5028743;28;105892;-64
2022/06/23 09:02:02;;;;;;;6.00;1.80;;;;;;;27.70;100.00;96143.47;5031486;28;101909;-64
2022/06/23 09:04:43;;;;;;;7.17;2.20;;;;;;;27.67;100.00;96149.69;5033225;28;105036;-64
2022/06/23 09:07:26;;;;;;;3.60;1.87;;;;;;;28.05;100.00;96146.78;5030341;28;102032;-64
2022/06/23 09:10:03;;;;;;;4.57;1.63;;;;;;;28.09;100.00;96134.78;5030539;28;105124;-64
2022/06/23 09:12:37;;;;;;;4.37;1.67;;;;;;;28.06;99.86;96143.69;5029525;28;105940;-64
2022/06/23 09:15:30;;;;;;;6.33;2.07;;;;;;;28.33;100.00;96147.22;5030301;28;101913;-64
2022/06/23 09:18:49;;;;;;;7.50;2.03;;;;;;;27.69;98.89;96137.19;5031467;28;102368;-64
2022/06/23 09:21:38;;;;;;;5.80;1.97;;;;;;;28.12;100.00;96133.25;5029655;28;105504;-64
2022/06/23 09:24:39;;;;;;;3.67;1.57;;;;;;;28.26;99.85;96128.78;5031468;28;102011;-64
2022/06/23 09:27:15;;;;;;;2.37;1.43;;;;;;;28.48;98.15;96129.88;5024945;27;102521;-64
2022/06/23 09:29:56;;;;;;;5.70;2.03;;;;;;;28.90;99.31;96124.94;5034328;28;103120;-64
2022/06/23 09:32:51;;;;;;;3.23;1.60;;;;;;;29.08;97.52;96124.00;5030180;28;104112;-64
2022/06/23 09:35:41;;;;;;;4.40;1.77;;;;;;;29.30;94.83;96119.53;5030707;28;104144;-64
2022/06/23 09:38:50;;;;;;;5.03;1.80;;;;;;;28.91;96.52;96110.09;5029702;28;101891;-64
2022/06/23 09:41:37;;;;;;;3.43;1.40;;;;;;;29.38;85.08;96111.00;5006600;27;102314;-64
2022/06/23 09:44:23;;;;;;;5.78;1.63;;;;;;;29.61;80.74;96110.84;5030757;28;102956;-64
2022/06/23 09:47:02;;;;;;;5.10;1.58;;;;;;;29.50;87.83;96108.00;5030939;28;101690;-64
2022/06/23 09:49:45;;;;;;;4.43;1.55;;;;;;;29.67;80.01;96103.84;5031424;28;102387;-64
2022/06/23 09:52:53;;;;;;;5.35;1.77;;;;;;;29.77;80.12;96103.16;5030554;28;102964;-64
2022/06/23 09:55:33;;;;;;;3.33;1.80;;;;;;;29.94;78.75;96097.81;5034747;28;101656;-64
2022/06/23 09:58:38;;;;;;;3.97;1.42;;;;;;;29.86;78.53;96101.66;5030462;28;103234;-64
2022/06/23 10:01:31;;;;;;;6.57;1.50;;;;;;;29.31;77.10;96097.25;5030060;27;101858;-64
2022/06/23 10:04:12;;;;;;;6.15;1.80;;;;;;;29.78;76.91;96096.50;5029388;28;103646;-64
2022/06/23 10:06:51;;;;;;;4.03;1.63;;;;;;;30.09;81.40;96095.97;5029001;28;105368;-64
2022/06/23 10:09:33;;;;;;;5.60;1.70;;;;;;;29.81;77.51;96084.78;5030897;28;101686;-64
2022/06/23 10:12:22;;;;;;;3.35;1.70;;;;;;;30.21;82.20;96087.44;5029440;28;104063;-64
2022/06/23 10:15:05;;;;;;;4.30;1.70;;;;;;;30.31;77.77;96082.03;5028747;28;106035;-64
2022/06/23 10:18:07;;;;;;;3.25;1.48;;;;;;;30.17;74.58;96081.94;5032843;28;101936;-64
2022/06/23 10:20:54;;;;;;;4.13;1.50;;;;;;;30.35;74.93;96080.06;5030044;28;102584;-64
2022/06/23 10:23:43;;;;;;;2.35;1.40;;;;;;;30.75;70.91;96084.59;5030929;28;101751;-64
2022/06/23 10:26:26;;;;;;;6.45;1.60;;;;;;;30.54;71.52;96076.25;5031010;28;102512;-64
2022/06/23 10:29:10;;;;;;;5.32;1.40;;;;;;;30.68;75.49;96079.09;5030051;27;101636;-64
2022/06/23 10:32:09;;;;;;;3.53;1.50;;;;;;;30.38;73.24;96075.78;5030712;28;101717;-64
2022/06/23 10:34:58;;;;;;;3.08;1.25;;;;;;;30.69;76.56;96073.22;5030303;28;102373;-64
2022/06/23 10:37:44;;;;;;;2.90;1.40;;;;;;;30.62;69.53;96072.38;5029598;28;102831;-64
2022/06/23 10:40:30;;;;;;;2.22;1.13;;;;;;;30.84;65.47;96060.31;5030711;27;101767;-64
2022/06/23 10:43:29;;;;;;;3.17;1.30;;;;;;;30.65;74.40;96069.66;5031505;28;105408;-64
2022/06/23 10:46:02;;;;;;;5.35;1.50;;;;;;;31.35;56.22;96074.59;5029080;28;101853;-64
2022/06/23 10:49:10;;;;;;;3.95;1.40;;;;;;;31.63;55.98;96072.66;5029044;28;105130;-64
2022/06/23 10:52:13;;;;;;;4.85;1.60;;;;;;;30.50;53.67;96058.97;5029484;28;102598;-64
2022/06/23 10:54:55;;;;;;;2.92;1.52;;;;;;;30.91;64.21;96055.63;5028852;28;101988;-64
2022/06/23 10:57:41;;;;;;;3.90;1.48;;;;;;;31.51;61.21;96053.81;5028783;28;103741;-64
2022/06/23 11:00:12;;;;;;;3.88;1.30;;;;;;;31.55;61.04;96048.28;5029162;28;103685;-64
2022/06/23 11:03:04;;;;;;;3.33;1.60;;;;;;;31.89;54.87;96044.78;5029800;27;101734;-64
2022/06/23 11:06:02;;;;;;;5.78;1.65;;;;;;;32.07;58.12;96044.72;5030212;27;102286;-64
2022/06/23 11:08:45;;;;;;;3.00;1.30;;;;;;;32.25;56.08;96045.47;5024484;27;102650;-64
2022/06/23 11:11:36;;;;;;;3.05;1.40;;;;;;;32.28;50.30;96039.19;5028692;28;105559;-64
2022/06/23 11:14:16;;;;;;;5.22;1.60;;;;;;;32.55;53.95;96034.78;5027835;28;105614;-64
2022/06/23 11:16:47;;;;;;;4.68;1.63;;;;;;;32.24;49.36;96032.88;5028644;28;101784;-64
2022/06/23 11:19:33;;;;;;;4.70;1.40;;;;;;;32.45;49.46;96036.41;5029807;28;102841;-64
2022/06/23 11:22:21;;;;;;;5.03;1.25;;;;;;;32.06;48.95;96029.41;5029441;27;102624;-64
2022/06/23 11:25:02;;;;;;;3.88;1.30;;;;;;;32.21;51.10;96030.94;5031955;28;101859;-64
2022/06/23 11:27:40;;;;;;;4.95;1.60;;;;;;;32.35;44.76;96017.16;5033589;28;102934;-64
2022/06/23 11:30:20;;;;;;;5.47;1.17;;;;;;;32.37;46.10;96017.56;5032696;28;102547;-64
2022/06/23 11:33:06;;;;;;;3.05;1.20;;;;;;;32.28;51.15;96017.97;5037029;27;101740;-65
2022/06/23 11:35:49;;;;;;;3.90;1.35;;;;;;;32.24;54.03;96011.66;5031363;28;105265;-66
2022/06/23 11:38:37;;;;;;;3.88;1.50;;;;;;;32.06;51.99;96010.94;5032135;28;101869;-65
2022/06/23 11:41:22;;;;;;;3.63;1.40;;;;;;;32.26;52.36;96000.28;5031821;28;105363;-65
2022/06/23 11:44:03;;;;;;;3.00;1.35;;;;;;;32.16;52.50;95999.13;5032326;27;102729;-65
2022/06/23 11:46:36;;;;;;;3.20;1.52;;;;;;;32.02;60.98;95995.59;5031827;28;101799;-65
2022/06/23 11:49:27;;;;;;;3.88;1.70;;;;;;;32.09;57.22;95992.84;5032870;27;104070;-65
2022/06/23 11:52:10;;;;;;;4.72;1.60;;;;;;;32.45;59.53;95983.28;5032280;28;102533;-65
2022/06/23 11:54:56;;;;;;;4.55;1.92;;;;;;;32.83;52.56;95980.38;5031666;28;101814;-65
2022/06/23 11:57:39;;;;;;;5.30;1.73;;;;;;;32.75;57.31;95983.53;5034393;28;105469;-65
2022/06/23 12:00:10;;;;;;;5.85;1.70;;;;;;;32.21;58.63;95973.16;5031299;28;102143;-65
2022/06/23 12:02:57;;;;;;;4.40;2.03;;;;;;;32.70;52.30;95976.47;5032656;27;102370;-65
2022/06/23 12:05:35;;;;;;;3.13;1.60;;;;;;;32.82;51.24;95976.06;5030707;28;106059;-65
2022/06/23 12:08:27;;;;;;;3.58;1.60;;;;;;;32.58;54.33;95965.91;5033144;28;101858;-65
2022/06/23 12:10:54;;;;;;;3.50;1.42;;;;;;;32.42;51.80;95964.84;5032861;27;102903;-65
2022/06/23 12:13:26;;;;;;;5.57;1.52;;;;;;;32.45;54.75;95967.56;5030487;28;105358;-65
2022/06/23 12:15:55;;;;;;;2.92;1.25;;;;;;;32.66;56.15;95967.47;5032834;28;101942;-65
2022/06/23 12:18:26;;;;;;;5.18;1.52;;;;;;;32.44;56.30;95956.94;5032806;27;102306;-64
2022/06/23 12:20:59;;;;;;;7.03;1.85;;;;;;;33.02;55.08;95965.31;5035143;27;101723;-64
2022/06/23 12:23:32;;;;;;;3.20;1.63;;;;;;;32.76;51.62;95955.59;5030914;28;106002;-64